sensor_id;sensor_type;location;lat;lon;timestamp;P1;durP1;ratioP1;P2;durP2;ratioP2
67640;SDS011;54434;50.096;20.082;2022-09-24T00:01:32;31.50;;;17.30;;
67640;SDS011;54434;50.096;20.082;2022-09-24T00:04:12;36.20;;;18.20;;
67640;SDS011;54434;50.096;20.082;2022-09-24T00:06:49;32.10;;;17.40;;
67640;SDS011;54434;50.096;20.082;2022-09-24T00:09:25;30.60;;;16.80;;
67640;SDS011;54434;50.096;20.082;2022-09-24T00:12:02;31.50;;;17.40;;
67640;SDS011;54434;50.096;20.082;2022-09-24T00:14:38;37.60;;;18.30;;
67640;SDS011;54434;50.096;20.082;2022-09-24T00:17:15;31.60;;;17.50;;
67640;SDS011;54434;50.096;20.082;2022-09-24T00:19:51;29.60;;;17.10;;
67640;SDS011;54434;50.096;20.082;2022-09-24T00:22:27;35.30;;;17.30;;
67640;SDS011;54434;50.096;20.082;2022-09-24T00:25:07;28.40;;;17.20;;
67640;SDS011;54434;50.096;20.082;2022-09-24T00:28:02;30.00;;;15.60;;
67640;SDS011;54434;50.096;20.082;2022-09-24T00:30:39;29.20;;;16.60;;
67640;SDS011;54434;50.096;20.082;2022-09-24T00:33:17;31.30;;;17.30;;
67640;SDS011;54434;50.096;20.082;2022-09-24T00:35:56;29.90;;;16.40;;
67640;SDS011;54434;50.096;20.082;2022-09-24T00:38:35;28.80;;;15.70;;
67640;SDS011;54434;50.096;20.082;2022-09-24T00:41:11;30.30;;;16.10;;
67640;SDS011;54434;50.096;20.082;2022-09-24T00:43:49;30.30;;;15.90;;
67640;SDS011;54434;50.096;20.082;2022-09-24T00:46:30;31.30;;;15.90;;
67640;SDS011;54434;50.096;20.082;2022-09-24T00:49:15;30.40;;;16.80;;
67640;SDS011;54434;50.096;20.082;2022-09-24T00:51:53;27.10;;;16.10;;
67640;SDS011;54434;50.096;20.082;2022-09-24T00:54:31;31.10;;;16.00;;
67640;SDS011;54434;50.096;20.082;2022-09-24T00:57:08;30.10;;;16.80;;
67640;SDS011;54434;50.096;20.082;2022-09-24T00:59:45;28.80;;;15.80;;
67640;SDS011;54434;50.096;20.082;2022-09-24T01:02:21;28.60;;;15.70;;
67640;SDS011;54434;50.096;20.082;2022-09-24T01:04:58;30.20;;;16.80;;
67640;SDS011;54434;50.096;20.082;2022-09-24T01:07:35;27.30;;;16.40;;
67640;SDS011;54434;50.096;20.082;2022-09-24T01:10:12;31.20;;;16.00;;
67640;SDS011;54434;50.096;20.082;2022-09-24T01:13:16;30.90;;;16.10;;
67640;SDS011;54434;50.096;20.082;2022-09-24T01:16:05;27.80;;;15.10;;
67640;SDS011;54434;50.096;20.082;2022-09-24T01:18:53;27.50;;;15.60;;
67640;SDS011;54434;50.096;20.082;2022-09-24T01:21:43;28.20;;;16.60;;
67640;SDS011;54434;50.096;20.082;2022-09-24T01:24:49;26.00;;;15.00;;
67640;SDS011;54434;50.096;20.082;2022-09-24T01:27:51;30.10;;;16.00;;
67640;SDS011;54434;50.096;20.082;2022-09-24T01:30:38;28.10;;;15.70;;
67640;SDS011;54434;50.096;20.082;2022-09-24T01:36:00;23.70;;;13.70;;
67640;SDS011;54434;50.096;20.082;2022-09-24T01:38:43;28.60;;;14.90;;
67640;SDS011;54434;50.096;20.082;2022-09-24T01:41:22;26.70;;;15.30;;
67640;SDS011;54434;50.096;20.082;2022-09-24T01:43:59;28.60;;;15.70;;
67640;SDS011;54434;50.096;20.082;2022-09-24T01:46:41;27.70;;;15.20;;
67640;SDS011;54434;50.096;20.082;2022-09-24T01:49:18;26.40;;;15.40;;
67640;SDS011;54434;50.096;20.082;2022-09-24T01:51:59;26.10;;;15.00;;
67640;SDS011;54434;50.096;20.082;2022-09-24T01:54:42;27.60;;;15.00;;
67640;SDS011;54434;50.096;20.082;2022-09-24T01:57:28;25.00;;;15.10;;
67640;SDS011;54434;50.096;20.082;2022-09-24T02:00:12;26.70;;;15.30;;
67640;SDS011;54434;50.096;20.082;2022-09-24T02:02:55;32.20;;;15.60;;
67640;SDS011;54434;50.096;20.082;2022-09-24T02:05:43;24.90;;;14.80;;
67640;SDS011;54434;50.096;20.082;2022-09-24T02:08:28;28.00;;;15.30;;
67640;SDS011;54434;50.096;20.082;2022-09-24T02:13:52;27.20;;;14.50;;
67640;SDS011;54434;50.096;20.082;2022-09-24T02:16:35;27.10;;;14.70;;
67640;SDS011;54434;50.096;20.082;2022-09-24T02:19:22;27.90;;;15.30;;
67640;SDS011;54434;50.096;20.082;2022-09-24T02:22:01;26.00;;;15.00;;
67640;SDS011;54434;50.096;20.082;2022-09-24T02:24:47;24.90;;;14.90;;
67640;SDS011;54434;50.096;20.082;2022-09-24T02:27:28;26.20;;;14.20;;
67640;SDS011;54434;50.096;20.082;2022-09-24T02:30:07;30.60;;;15.20;;
67640;SDS011;54434;50.096;20.082;2022-09-24T02:32:44;24.90;;;14.20;;
67640;SDS011;54434;50.096;20.082;2022-09-24T02:35:23;26.50;;;14.80;;
67640;SDS011;54434;50.096;20.082;2022-09-24T02:37:59;26.00;;;14.70;;
67640;SDS011;54434;50.096;20.082;2022-09-24T02:40:38;27.10;;;13.90;;
67640;SDS011;54434;50.096;20.082;2022-09-24T02:43:17;27.80;;;14.70;;
67640;SDS011;54434;50.096;20.082;2022-09-24T02:45:54;25.40;;;13.90;;
67640;SDS011;54434;50.096;20.082;2022-09-24T02:48:30;25.70;;;13.70;;
67640;SDS011;54434;50.096;20.082;2022-09-24T02:51:07;25.40;;;13.70;;
67640;SDS011;54434;50.096;20.082;2022-09-24T02:53:44;25.20;;;14.10;;
67640;SDS011;54434;50.096;20.082;2022-09-24T02:56:20;23.40;;;13.90;;
67640;SDS011;54434;50.096;20.082;2022-09-24T02:58:56;23.60;;;13.50;;
67640;SDS011;54434;50.096;20.082;2022-09-24T03:01:34;26.00;;;14.50;;
67640;SDS011;54434;50.096;20.082;2022-09-24T03:04:11;29.40;;;14.70;;
67640;SDS011;54434;50.096;20.082;2022-09-24T03:06:48;25.00;;;14.30;;
67640;SDS011;54434;50.096;20.082;2022-09-24T03:09:25;24.40;;;14.60;;
67640;SDS011;54434;50.096;20.082;2022-09-24T03:12:02;23.70;;;14.10;;
67640;SDS011;54434;50.096;20.082;2022-09-24T03:14:39;25.50;;;14.00;;
67640;SDS011;54434;50.096;20.082;2022-09-24T03:17:15;24.80;;;14.60;;
67640;SDS011;54434;50.096;20.082;2022-09-24T03:19:51;24.30;;;13.60;;
67640;SDS011;54434;50.096;20.082;2022-09-24T03:22:27;25.10;;;14.30;;
67640;SDS011;54434;50.096;20.082;2022-09-24T03:25:05;24.90;;;14.60;;
67640;SDS011;54434;50.096;20.082;2022-09-24T03:27:43;26.00;;;15.40;;
67640;SDS011;54434;50.096;20.082;2022-09-24T03:30:19;24.30;;;14.10;;
67640;SDS011;54434;50.096;20.082;2022-09-24T03:33:13;26.40;;;14.50;;
67640;SDS011;54434;50.096;20.082;2022-09-24T03:35:49;25.10;;;13.50;;
67640;SDS011;54434;50.096;20.082;2022-09-24T03:38:30;27.50;;;14.80;;
67640;SDS011;54434;50.096;20.082;2022-09-24T03:41:08;54.00;;;28.80;;
67640;SDS011;54434;50.096;20.082;2022-09-24T03:43:45;33.20;;;17.90;;
67640;SDS011;54434;50.096;20.082;2022-09-24T03:46:22;23.30;;;13.30;;
67640;SDS011;54434;50.096;20.082;2022-09-24T03:49:00;24.10;;;14.30;;
67640;SDS011;54434;50.096;20.082;2022-09-24T03:51:37;26.70;;;14.60;;
67640;SDS011;54434;50.096;20.082;2022-09-24T03:54:14;27.90;;;13.90;;
67640;SDS011;54434;50.096;20.082;2022-09-24T03:56:50;25.20;;;14.50;;
67640;SDS011;54434;50.096;20.082;2022-09-24T03:59:26;26.20;;;14.30;;
67640;SDS011;54434;50.096;20.082;2022-09-24T04:02:03;53.60;;;26.70;;
67640;SDS011;54434;50.096;20.082;2022-09-24T04:04:40;25.40;;;14.90;;
67640;SDS011;54434;50.096;20.082;2022-09-24T04:07:16;26.50;;;14.60;;
67640;SDS011;54434;50.096;20.082;2022-09-24T04:09:53;24.80;;;14.70;;
67640;SDS011;54434;50.096;20.082;2022-09-24T04:12:29;25.20;;;14.90;;
67640;SDS011;54434;50.096;20.082;2022-09-24T04:15:07;24.70;;;13.60;;
67640;SDS011;54434;50.096;20.082;2022-09-24T04:17:50;26.40;;;14.30;;
67640;SDS011;54434;50.096;20.082;2022-09-24T04:20:28;28.00;;;14.20;;
67640;SDS011;54434;50.096;20.082;2022-09-24T04:23:06;25.80;;;14.30;;
67640;SDS011;54434;50.096;20.082;2022-09-24T04:25:43;25.10;;;15.10;;
67640;SDS011;54434;50.096;20.082;2022-09-24T04:28:20;29.80;;;15.60;;
67640;SDS011;54434;50.096;20.082;2022-09-24T04:30:56;29.60;;;15.60;;
67640;SDS011;54434;50.096;20.082;2022-09-24T04:33:33;28.00;;;14.50;;
67640;SDS011;54434;50.096;20.082;2022-09-24T04:36:10;28.40;;;15.30;;
67640;SDS011;54434;50.096;20.082;2022-09-24T04:38:46;28.30;;;15.10;;
67640;SDS011;54434;50.096;20.082;2022-09-24T04:41:22;27.00;;;15.40;;
67640;SDS011;54434;50.096;20.082;2022-09-24T04:44:00;29.90;;;15.80;;
67640;SDS011;54434;50.096;20.082;2022-09-24T04:46:37;30.60;;;18.50;;
67640;SDS011;54434;50.096;20.082;2022-09-24T04:49:14;31.00;;;17.90;;
67640;SDS011;54434;50.096;20.082;2022-09-24T04:51:50;31.10;;;18.10;;
67640;SDS011;54434;50.096;20.082;2022-09-24T04:54:30;28.20;;;16.40;;
67640;SDS011;54434;50.096;20.082;2022-09-24T04:57:06;33.00;;;17.40;;
67640;SDS011;54434;50.096;20.082;2022-09-24T04:59:43;27.30;;;16.20;;
67640;SDS011;54434;50.096;20.082;2022-09-24T05:02:19;27.40;;;15.40;;
67640;SDS011;54434;50.096;20.082;2022-09-24T05:04:56;28.70;;;15.20;;
67640;SDS011;54434;50.096;20.082;2022-09-24T05:07:32;25.20;;;14.30;;
67640;SDS011;54434;50.096;20.082;2022-09-24T05:10:10;25.20;;;14.30;;
67640;SDS011;54434;50.096;20.082;2022-09-24T05:12:46;26.00;;;14.50;;
67640;SDS011;54434;50.096;20.082;2022-09-24T05:15:22;22.70;;;14.40;;
67640;SDS011;54434;50.096;20.082;2022-09-24T05:17:59;25.80;;;14.80;;
67640;SDS011;54434;50.096;20.082;2022-09-24T05:20:35;28.40;;;15.20;;
67640;SDS011;54434;50.096;20.082;2022-09-24T05:23:11;23.90;;;14.00;;
67640;SDS011;54434;50.096;20.082;2022-09-24T05:25:47;21.80;;;13.20;;
67640;SDS011;54434;50.096;20.082;2022-09-24T05:28:41;25.50;;;14.10;;
67640;SDS011;54434;50.096;20.082;2022-09-24T05:31:17;24.60;;;12.70;;
67640;SDS011;54434;50.096;20.082;2022-09-24T05:33:53;19.90;;;12.20;;
67640;SDS011;54434;50.096;20.082;2022-09-24T05:36:30;24.60;;;13.80;;
67640;SDS011;54434;50.096;20.082;2022-09-24T05:39:06;19.60;;;11.90;;
67640;SDS011;54434;50.096;20.082;2022-09-24T05:41:43;25.60;;;12.90;;
67640;SDS011;54434;50.096;20.082;2022-09-24T05:44:20;19.50;;;12.80;;
67640;SDS011;54434;50.096;20.082;2022-09-24T05:46:57;26.30;;;15.90;;
67640;SDS011;54434;50.096;20.082;2022-09-24T05:49:33;37.10;;;20.60;;
67640;SDS011;54434;50.096;20.082;2022-09-24T05:52:10;27.40;;;14.00;;
67640;SDS011;54434;50.096;20.082;2022-09-24T05:54:46;23.80;;;13.50;;
67640;SDS011;54434;50.096;20.082;2022-09-24T05:57:22;24.60;;;14.10;;
67640;SDS011;54434;50.096;20.082;2022-09-24T05:59:59;24.00;;;14.40;;
67640;SDS011;54434;50.096;20.082;2022-09-24T06:02:44;22.60;;;12.70;;
67640;SDS011;54434;50.096;20.082;2022-09-24T06:05:21;20.20;;;13.60;;
67640;SDS011;54434;50.096;20.082;2022-09-24T06:07:58;22.50;;;13.00;;
67640;SDS011;54434;50.096;20.082;2022-09-24T06:10:36;20.00;;;12.40;;
67640;SDS011;54434;50.096;20.082;2022-09-24T06:13:12;20.30;;;12.70;;
67640;SDS011;54434;50.096;20.082;2022-09-24T06:15:50;20.80;;;13.00;;
67640;SDS011;54434;50.096;20.082;2022-09-24T06:18:26;19.80;;;12.80;;
67640;SDS011;54434;50.096;20.082;2022-09-24T06:21:07;20.70;;;12.40;;
67640;SDS011;54434;50.096;20.082;2022-09-24T06:23:44;21.50;;;12.80;;
67640;SDS011;54434;50.096;20.082;2022-09-24T06:26:22;22.20;;;13.20;;
67640;SDS011;54434;50.096;20.082;2022-09-24T06:29:00;24.20;;;13.20;;
67640;SDS011;54434;50.096;20.082;2022-09-24T06:31:37;20.00;;;12.20;;
67640;SDS011;54434;50.096;20.082;2022-09-24T06:34:14;26.80;;;13.10;;
67640;SDS011;54434;50.096;20.082;2022-09-24T06:36:53;22.10;;;13.50;;
67640;SDS011;54434;50.096;20.082;2022-09-24T06:39:30;24.00;;;14.20;;
67640;SDS011;54434;50.096;20.082;2022-09-24T06:42:07;27.20;;;14.50;;
67640;SDS011;54434;50.096;20.082;2022-09-24T06:44:44;29.70;;;13.90;;
67640;SDS011;54434;50.096;20.082;2022-09-24T06:47:21;22.80;;;13.40;;
67640;SDS011;54434;50.096;20.082;2022-09-24T06:49:57;25.10;;;13.30;;
67640;SDS011;54434;50.096;20.082;2022-09-24T06:52:34;27.40;;;14.30;;
67640;SDS011;54434;50.096;20.082;2022-09-24T06:55:11;26.50;;;14.00;;
67640;SDS011;54434;50.096;20.082;2022-09-24T06:57:47;24.40;;;14.30;;
67640;SDS011;54434;50.096;20.082;2022-09-24T07:00:24;21.80;;;13.40;;
67640;SDS011;54434;50.096;20.082;2022-09-24T07:03:00;23.10;;;14.00;;
67640;SDS011;54434;50.096;20.082;2022-09-24T07:05:36;26.90;;;14.20;;
67640;SDS011;54434;50.096;20.082;2022-09-24T07:08:16;23.70;;;14.30;;
67640;SDS011;54434;50.096;20.082;2022-09-24T07:10:52;25.00;;;14.90;;
67640;SDS011;54434;50.096;20.082;2022-09-24T07:13:28;28.10;;;14.60;;
67640;SDS011;54434;50.096;20.082;2022-09-24T07:16:05;28.40;;;14.90;;
67640;SDS011;54434;50.096;20.082;2022-09-24T07:18:42;32.30;;;15.20;;
67640;SDS011;54434;50.096;20.082;2022-09-24T07:21:18;27.20;;;14.20;;
67640;SDS011;54434;50.096;20.082;2022-09-24T07:23:54;32.80;;;15.10;;
67640;SDS011;54434;50.096;20.082;2022-09-24T07:26:31;29.00;;;14.90;;
67640;SDS011;54434;50.096;20.082;2022-09-24T07:29:08;23.60;;;14.50;;
67640;SDS011;54434;50.096;20.082;2022-09-24T07:31:44;25.40;;;14.70;;
67640;SDS011;54434;50.096;20.082;2022-09-24T07:34:21;24.30;;;14.80;;
67640;SDS011;54434;50.096;20.082;2022-09-24T07:36:58;27.00;;;14.80;;
67640;SDS011;54434;50.096;20.082;2022-09-24T07:39:35;24.70;;;14.60;;
67640;SDS011;54434;50.096;20.082;2022-09-24T07:42:11;27.70;;;14.20;;
67640;SDS011;54434;50.096;20.082;2022-09-24T07:44:47;25.80;;;14.40;;
67640;SDS011;54434;50.096;20.082;2022-09-24T07:47:23;22.50;;;14.30;;
67640;SDS011;54434;50.096;20.082;2022-09-24T07:49:59;25.10;;;14.00;;
67640;SDS011;54434;50.096;20.082;2022-09-24T07:52:36;25.10;;;14.80;;
67640;SDS011;54434;50.096;20.082;2022-09-24T07:55:13;27.80;;;15.20;;
67640;SDS011;54434;50.096;20.082;2022-09-24T07:57:51;26.50;;;15.50;;
67640;SDS011;54434;50.096;20.082;2022-09-24T08:00:29;25.30;;;15.00;;
67640;SDS011;54434;50.096;20.082;2022-09-24T08:03:05;23.60;;;14.60;;
67640;SDS011;54434;50.096;20.082;2022-09-24T08:05:46;24.10;;;14.10;;
67640;SDS011;54434;50.096;20.082;2022-09-24T08:08:22;23.80;;;14.50;;
67640;SDS011;54434;50.096;20.082;2022-09-24T08:11:03;29.80;;;14.10;;
67640;SDS011;54434;50.096;20.082;2022-09-24T08:13:40;27.70;;;16.50;;
67640;SDS011;54434;50.096;20.082;2022-09-24T08:16:21;24.80;;;14.60;;
67640;SDS011;54434;50.096;20.082;2022-09-24T08:18:59;25.20;;;15.00;;
67640;SDS011;54434;50.096;20.082;2022-09-24T08:21:38;28.10;;;16.70;;
67640;SDS011;54434;50.096;20.082;2022-09-24T08:24:15;25.50;;;15.40;;
67640;SDS011;54434;50.096;20.082;2022-09-24T08:26:51;28.90;;;16.30;;
67640;SDS011;54434;50.096;20.082;2022-09-24T08:29:28;27.00;;;15.50;;
67640;SDS011;54434;50.096;20.082;2022-09-24T08:32:04;30.70;;;17.30;;
67640;SDS011;54434;50.096;20.082;2022-09-24T08:34:41;32.30;;;18.80;;
67640;SDS011;54434;50.096;20.082;2022-09-24T08:37:17;27.60;;;18.00;;
67640;SDS011;54434;50.096;20.082;2022-09-24T08:39:53;25.40;;;16.50;;
67640;SDS011;54434;50.096;20.082;2022-09-24T08:42:39;30.70;;;16.90;;
67640;SDS011;54434;50.096;20.082;2022-09-24T08:45:21;25.60;;;16.10;;
67640;SDS011;54434;50.096;20.082;2022-09-24T08:48:26;27.90;;;14.80;;
67640;SDS011;54434;50.096;20.082;2022-09-24T08:51:14;22.70;;;14.50;;
67640;SDS011;54434;50.096;20.082;2022-09-24T08:53:59;21.70;;;14.10;;
67640;SDS011;54434;50.096;20.082;2022-09-24T08:56:43;22.00;;;13.90;;
67640;SDS011;54434;50.096;20.082;2022-09-24T08:59:28;23.80;;;14.10;;
67640;SDS011;54434;50.096;20.082;2022-09-24T09:02:26;21.30;;;14.50;;
67640;SDS011;54434;50.096;20.082;2022-09-24T09:05:22;20.40;;;12.70;;
67640;SDS011;54434;50.096;20.082;2022-09-24T09:08:10;17.90;;;11.40;;
67640;SDS011;54434;50.096;20.082;2022-09-24T09:11:15;18.00;;;12.00;;
67640;SDS011;54434;50.096;20.082;2022-09-24T09:16:45;16.30;;;8.60;;
67640;SDS011;54434;50.096;20.082;2022-09-24T09:19:29;15.30;;;8.50;;
67640;SDS011;54434;50.096;20.082;2022-09-24T09:22:14;12.50;;;8.40;;
67640;SDS011;54434;50.096;20.082;2022-09-24T09:24:52;16.90;;;10.40;;
67640;SDS011;54434;50.096;20.082;2022-09-24T09:27:36;16.20;;;9.30;;
67640;SDS011;54434;50.096;20.082;2022-09-24T09:30:17;16.80;;;9.60;;
67640;SDS011;54434;50.096;20.082;2022-09-24T09:33:13;13.20;;;7.80;;
67640;SDS011;54434;50.096;20.082;2022-09-24T09:36:10;9.80;;;5.80;;
67640;SDS011;54434;50.096;20.082;2022-09-24T09:39:07;14.60;;;8.40;;
67640;SDS011;54434;50.096;20.082;2022-09-24T09:42:02;16.00;;;9.00;;
67640;SDS011;54434;50.096;20.082;2022-09-24T09:44:49;15.80;;;8.70;;
67640;SDS011;54434;50.096;20.082;2022-09-24T09:47:35;20.30;;;11.70;;
67640;SDS011;54434;50.096;20.082;2022-09-24T09:50:26;13.70;;;7.60;;
67640;SDS011;54434;50.096;20.082;2022-09-24T09:53:19;16.90;;;8.80;;
67640;SDS011;54434;50.096;20.082;2022-09-24T09:55:59;22.50;;;11.40;;
67640;SDS011;54434;50.096;20.082;2022-09-24T09:58:42;19.90;;;10.30;;
67640;SDS011;54434;50.096;20.082;2022-09-24T10:01:33;11.40;;;7.70;;
67640;SDS011;54434;50.096;20.082;2022-09-24T10:04:36;10.70;;;6.80;;
67640;SDS011;54434;50.096;20.082;2022-09-24T10:07:16;16.40;;;7.80;;
67640;SDS011;54434;50.096;20.082;2022-09-24T10:10:03;14.90;;;7.20;;
67640;SDS011;54434;50.096;20.082;2022-09-24T10:13:04;12.10;;;6.80;;
67640;SDS011;54434;50.096;20.082;2022-09-24T10:15:50;8.80;;;5.80;;
67640;SDS011;54434;50.096;20.082;2022-09-24T10:18:33;11.50;;;6.40;;
67640;SDS011;54434;50.096;20.082;2022-09-24T10:24:13;9.50;;;5.20;;
67640;SDS011;54434;50.096;20.082;2022-09-24T10:26:52;10.70;;;5.80;;
67640;SDS011;54434;50.096;20.082;2022-09-24T10:29:32;9.30;;;5.20;;
67640;SDS011;54434;50.096;20.082;2022-09-24T10:32:27;7.70;;;4.60;;
67640;SDS011;54434;50.096;20.082;2022-09-24T10:35:17;8.10;;;4.30;;
67640;SDS011;54434;50.096;20.082;2022-09-24T10:37:57;19.10;;;9.50;;
67640;SDS011;54434;50.096;20.082;2022-09-24T10:40:40;20.60;;;9.90;;
67640;SDS011;54434;50.096;20.082;2022-09-24T10:43:21;7.60;;;4.40;;
67640;SDS011;54434;50.096;20.082;2022-09-24T10:46:18;8.70;;;5.20;;
67640;SDS011;54434;50.096;20.082;2022-09-24T10:49:16;12.60;;;6.20;;
67640;SDS011;54434;50.096;20.082;2022-09-24T10:52:17;9.20;;;5.10;;
67640;SDS011;54434;50.096;20.082;2022-09-24T10:55:20;8.70;;;4.30;;
67640;SDS011;54434;50.096;20.082;2022-09-24T10:58:19;9.40;;;4.50;;
67640;SDS011;54434;50.096;20.082;2022-09-24T11:01:15;8.00;;;4.50;;
67640;SDS011;54434;50.096;20.082;2022-09-24T11:04:23;12.30;;;6.80;;
67640;SDS011;54434;50.096;20.082;2022-09-24T11:07:59;10.10;;;5.70;;
67640;SDS011;54434;50.096;20.082;2022-09-24T11:11:12;14.10;;;6.60;;
67640;SDS011;54434;50.096;20.082;2022-09-24T11:14:08;19.70;;;7.30;;
67640;SDS011;54434;50.096;20.082;2022-09-24T11:20:28;8.20;;;4.30;;
67640;SDS011;54434;50.096;20.082;2022-09-24T11:23:39;7.60;;;4.00;;
67640;SDS011;54434;50.096;20.082;2022-09-24T11:26:42;5.80;;;3.80;;
67640;SDS011;54434;50.096;20.082;2022-09-24T11:29:39;8.70;;;4.40;;
67640;SDS011;54434;50.096;20.082;2022-09-24T11:32:29;10.90;;;5.60;;
67640;SDS011;54434;50.096;20.082;2022-09-24T11:35:41;10.70;;;5.20;;
67640;SDS011;54434;50.096;20.082;2022-09-24T11:38:41;8.00;;;4.10;;
67640;SDS011;54434;50.096;20.082;2022-09-24T11:41:41;10.70;;;4.80;;
67640;SDS011;54434;50.096;20.082;2022-09-24T11:45:00;6.70;;;3.90;;
67640;SDS011;54434;50.096;20.082;2022-09-24T11:48:18;8.30;;;3.70;;
67640;SDS011;54434;50.096;20.082;2022-09-24T11:51:16;5.90;;;3.60;;
67640;SDS011;54434;50.096;20.082;2022-09-24T11:54:02;8.70;;;4.60;;
67640;SDS011;54434;50.096;20.082;2022-09-24T11:56:50;8.40;;;4.20;;
67640;SDS011;54434;50.096;20.082;2022-09-24T11:59:40;7.00;;;3.60;;
67640;SDS011;54434;50.096;20.082;2022-09-24T12:02:26;9.30;;;4.60;;
67640;SDS011;54434;50.096;20.082;2022-09-24T12:05:11;10.20;;;4.80;;
67640;SDS011;54434;50.096;20.082;2022-09-24T12:07:58;7.60;;;4.00;;
67640;SDS011;54434;50.096;20.082;2022-09-24T12:10:41;7.30;;;3.70;;
67640;SDS011;54434;50.096;20.082;2022-09-24T12:13:22;8.10;;;4.00;;
67640;SDS011;54434;50.096;20.082;2022-09-24T12:16:05;6.80;;;4.00;;
67640;SDS011;54434;50.096;20.082;2022-09-24T12:18:48;7.00;;;4.10;;
67640;SDS011;54434;50.096;20.082;2022-09-24T12:21:33;6.90;;;3.50;;
67640;SDS011;54434;50.096;20.082;2022-09-24T12:24:17;5.80;;;3.50;;
67640;SDS011;54434;50.096;20.082;2022-09-24T12:27:06;9.10;;;3.60;;
67640;SDS011;54434;50.096;20.082;2022-09-24T12:29:53;9.60;;;4.00;;
67640;SDS011;54434;50.096;20.082;2022-09-24T12:33:00;8.50;;;3.80;;
67640;SDS011;54434;50.096;20.082;2022-09-24T12:36:02;5.50;;;2.80;;
67640;SDS011;54434;50.096;20.082;2022-09-24T12:38:46;6.70;;;3.00;;
67640;SDS011;54434;50.096;20.082;2022-09-24T12:41:34;5.00;;;3.00;;
67640;SDS011;54434;50.096;20.082;2022-09-24T12:44:18;8.90;;;3.80;;
67640;SDS011;54434;50.096;20.082;2022-09-24T12:47:02;7.80;;;3.60;;
67640;SDS011;54434;50.096;20.082;2022-09-24T12:49:39;5.80;;;2.40;;
67640;SDS011;54434;50.096;20.082;2022-09-24T12:52:26;4.70;;;2.40;;
67640;SDS011;54434;50.096;20.082;2022-09-24T12:55:19;6.00;;;2.50;;
67640;SDS011;54434;50.096;20.082;2022-09-24T12:58:00;5.40;;;2.60;;
67640;SDS011;54434;50.096;20.082;2022-09-24T13:00:42;4.50;;;2.40;;
67640;SDS011;54434;50.096;20.082;2022-09-24T13:03:34;4.30;;;2.20;;
67640;SDS011;54434;50.096;20.082;2022-09-24T13:06:32;5.10;;;2.40;;
67640;SDS011;54434;50.096;20.082;2022-09-24T13:12:28;5.00;;;2.80;;
67640;SDS011;54434;50.096;20.082;2022-09-24T13:15:20;4.90;;;2.50;;
67640;SDS011;54434;50.096;20.082;2022-09-24T13:18:22;10.40;;;3.30;;
67640;SDS011;54434;50.096;20.082;2022-09-24T13:21:07;4.30;;;2.60;;
67640;SDS011;54434;50.096;20.082;2022-09-24T13:23:52;7.00;;;2.30;;
67640;SDS011;54434;50.096;20.082;2022-09-24T13:26:34;4.20;;;2.30;;
67640;SDS011;54434;50.096;20.082;2022-09-24T13:29:25;4.30;;;2.40;;
67640;SDS011;54434;50.096;20.082;2022-09-24T13:32:17;4.70;;;2.50;;
67640;SDS011;54434;50.096;20.082;2022-09-24T13:34:55;4.30;;;2.40;;
67640;SDS011;54434;50.096;20.082;2022-09-24T13:37:37;4.20;;;2.30;;
67640;SDS011;54434;50.096;20.082;2022-09-24T13:40:23;23.00;;;3.00;;
67640;SDS011;54434;50.096;20.082;2022-09-24T13:43:06;4.30;;;2.50;;
67640;SDS011;54434;50.096;20.082;2022-09-24T13:45:49;6.10;;;2.60;;
67640;SDS011;54434;50.096;20.082;2022-09-24T13:48:32;6.60;;;2.40;;
67640;SDS011;54434;50.096;20.082;2022-09-24T13:51:14;4.60;;;2.20;;
67640;SDS011;54434;50.096;20.082;2022-09-24T13:53:57;4.80;;;2.50;;
67640;SDS011;54434;50.096;20.082;2022-09-24T13:56:40;7.40;;;3.10;;
67640;SDS011;54434;50.096;20.082;2022-09-24T13:59:17;10.60;;;4.40;;
67640;SDS011;54434;50.096;20.082;2022-09-24T14:01:53;6.60;;;3.00;;
67640;SDS011;54434;50.096;20.082;2022-09-24T14:04:31;7.20;;;2.90;;
67640;SDS011;54434;50.096;20.082;2022-09-24T14:07:08;5.90;;;2.80;;
67640;SDS011;54434;50.096;20.082;2022-09-24T14:09:45;7.60;;;3.50;;
67640;SDS011;54434;50.096;20.082;2022-09-24T14:12:23;8.20;;;3.80;;
67640;SDS011;54434;50.096;20.082;2022-09-24T14:15:03;6.90;;;2.90;;
67640;SDS011;54434;50.096;20.082;2022-09-24T14:17:58;11.00;;;4.10;;
67640;SDS011;54434;50.096;20.082;2022-09-24T14:20:35;8.40;;;3.60;;
67640;SDS011;54434;50.096;20.082;2022-09-24T14:23:17;7.00;;;3.30;;
67640;SDS011;54434;50.096;20.082;2022-09-24T14:25:58;8.50;;;3.40;;
67640;SDS011;54434;50.096;20.082;2022-09-24T14:28:36;6.30;;;2.90;;
67640;SDS011;54434;50.096;20.082;2022-09-24T14:31:13;4.50;;;2.70;;
67640;SDS011;54434;50.096;20.082;2022-09-24T14:33:50;6.00;;;2.60;;
67640;SDS011;54434;50.096;20.082;2022-09-24T14:36:27;4.70;;;2.50;;
67640;SDS011;54434;50.096;20.082;2022-09-24T14:39:06;4.50;;;2.50;;
67640;SDS011;54434;50.096;20.082;2022-09-24T14:41:45;4.90;;;2.80;;
67640;SDS011;54434;50.096;20.082;2022-09-24T14:44:25;6.40;;;2.90;;
67640;SDS011;54434;50.096;20.082;2022-09-24T14:47:03;7.40;;;2.60;;
67640;SDS011;54434;50.096;20.082;2022-09-24T14:49:53;6.30;;;2.90;;
67640;SDS011;54434;50.096;20.082;2022-09-24T14:52:35;4.80;;;2.60;;
67640;SDS011;54434;50.096;20.082;2022-09-24T14:55:19;5.50;;;2.60;;
67640;SDS011;54434;50.096;20.082;2022-09-24T14:57:56;5.80;;;2.90;;
67640;SDS011;54434;50.096;20.082;2022-09-24T15:00:36;5.00;;;2.90;;
67640;SDS011;54434;50.096;20.082;2022-09-24T15:03:28;5.60;;;2.80;;
67640;SDS011;54434;50.096;20.082;2022-09-24T15:06:19;5.90;;;2.80;;
67640;SDS011;54434;50.096;20.082;2022-09-24T15:09:00;4.30;;;2.50;;
67640;SDS011;54434;50.096;20.082;2022-09-24T15:11:39;5.30;;;2.60;;
67640;SDS011;54434;50.096;20.082;2022-09-24T15:14:21;5.30;;;2.40;;
67640;SDS011;54434;50.096;20.082;2022-09-24T15:17:27;5.80;;;3.20;;
67640;SDS011;54434;50.096;20.082;2022-09-24T15:20:07;5.60;;;2.60;;
67640;SDS011;54434;50.096;20.082;2022-09-24T15:22:46;5.40;;;2.40;;
67640;SDS011;54434;50.096;20.082;2022-09-24T15:25:22;5.70;;;2.70;;
67640;SDS011;54434;50.096;20.082;2022-09-24T15:27:59;4.90;;;2.50;;
67640;SDS011;54434;50.096;20.082;2022-09-24T15:30:36;6.80;;;2.80;;
67640;SDS011;54434;50.096;20.082;2022-09-24T15:33:14;4.80;;;2.70;;
67640;SDS011;54434;50.096;20.082;2022-09-24T15:35:51;4.90;;;2.50;;
67640;SDS011;54434;50.096;20.082;2022-09-24T15:38:27;4.80;;;2.40;;
67640;SDS011;54434;50.096;20.082;2022-09-24T15:41:04;5.40;;;2.40;;
67640;SDS011;54434;50.096;20.082;2022-09-24T15:43:43;5.00;;;2.60;;
67640;SDS011;54434;50.096;20.082;2022-09-24T15:46:19;4.90;;;2.40;;
67640;SDS011;54434;50.096;20.082;2022-09-24T15:48:55;4.50;;;2.50;;
67640;SDS011;54434;50.096;20.082;2022-09-24T15:51:31;5.50;;;2.50;;
67640;SDS011;54434;50.096;20.082;2022-09-24T15:54:09;5.10;;;2.60;;
67640;SDS011;54434;50.096;20.082;2022-09-24T15:56:45;6.10;;;2.90;;
67640;SDS011;54434;50.096;20.082;2022-09-24T15:59:25;4.90;;;2.60;;
67640;SDS011;54434;50.096;20.082;2022-09-24T16:02:05;7.20;;;3.30;;
67640;SDS011;54434;50.096;20.082;2022-09-24T16:04:51;8.30;;;4.10;;